createdAt,value
2019-03-30T00:00:03.252Z,94.7
2019-03-30T00:01:26.869Z,95
2019-03-30T00:02:25.734Z,95.1
2019-03-30T00:03:24.608Z,95
2019-03-30T00:04:24.068Z,95.1
2019-03-30T00:05:22.926Z,95.1
2019-03-30T00:05:53.617Z,95.1
2019-03-30T00:06:24.343Z,95.1
2019-03-30T00:06:54.538Z,95.1
2019-03-30T00:07:25.121Z,95
2019-03-30T00:07:55.631Z,95
2019-03-30T00:08:26.223Z,95
2019-03-30T00:08:56.862Z,95
2019-03-30T00:10:18.190Z,95.1
2019-03-30T00:11:17.569Z,95
2019-03-30T00:12:16.341Z,94.9
2019-03-30T00:13:15.620Z,94.9
2019-03-30T00:14:14.390Z,95
2019-03-30T00:15:13.567Z,95.3
2019-03-30T00:15:44.067Z,95.3
2019-03-30T00:16:14.752Z,95.5
2019-03-30T00:16:45.358Z,95.5
2019-03-30T00:17:15.599Z,95.5
2019-03-30T00:17:46.285Z,95.5
2019-03-30T00:18:16.819Z,95.4
2019-03-30T00:18:47.637Z,95.4
2019-03-30T00:19:17.826Z,95.3
2019-03-30T00:19:48.510Z,95.3
2019-03-30T00:21:07.909Z,95.3
2019-03-30T00:22:06.777Z,95.2
2019-03-30T00:23:05.880Z,95.2
2019-03-30T00:24:05.257Z,95.3
2019-03-30T00:25:04.131Z,95.2
2019-03-30T00:25:34.718Z,95.2
2019-03-30T00:26:04.918Z,95.5
2019-03-30T00:26:35.616Z,95.5
2019-03-30T00:27:05.844Z,95.4
2019-03-30T00:27:36.534Z,95.4
2019-03-30T00:28:07.215Z,95.4
2019-03-30T00:28:37.797Z,95.4
2019-03-30T00:29:08.485Z,95.4
2019-03-30T00:29:39.172Z,95.4
2019-03-30T00:30:58.390Z,95.7
2019-03-30T00:31:57.788Z,95.8
2019-03-30T00:32:56.660Z,95.8
2019-03-30T00:33:55.936Z,95.8
2019-03-30T00:34:54.805Z,95.8
2019-03-30T00:35:53.675Z,95.7
2019-03-30T00:36:24.358Z,95.7
2019-03-30T00:36:54.994Z,95.6
2019-03-30T00:37:25.583Z,95.6
2019-03-30T00:37:56.275Z,95.6
2019-03-30T00:38:26.961Z,95.6
2019-03-30T00:38:57.637Z,95.6
2019-03-30T00:39:28.127Z,95.6
2019-03-30T00:40:49.061Z,95.5
2019-03-30T00:41:48.393Z,95.5
2019-03-30T00:42:47.433Z,95.5
2019-03-30T00:43:46.303Z,95.6
2019-03-30T00:44:45.106Z,95.7
2019-03-30T00:45:44.400Z,95.6
2019-03-30T00:46:43.580Z,95.6
2019-03-30T00:47:13.830Z,95.6
2019-03-30T00:48:41.689Z,95.8
2019-03-30T00:49:12.381Z,95.8
2019-03-30T00:50:39.456Z,95.6
2019-03-30T00:51:38.749Z,95.6
2019-03-30T00:52:37.665Z,95.5
2019-03-30T00:53:37.038Z,95.5
2019-03-30T00:54:35.813Z,95.8
2019-03-30T00:55:35.103Z,95.7
2019-03-30T00:56:33.874Z,95.7
2019-03-30T00:57:04.366Z,95.7
2019-03-30T00:57:34.854Z,96.1
2019-03-30T00:58:05.145Z,96.1
2019-03-30T00:58:35.834Z,96.1
2019-03-30T00:59:06.342Z,96.1
2019-03-30T01:00:30.377Z,96
2019-03-30T01:01:29.146Z,96
2019-03-30T01:02:28.517Z,95.9
2019-03-30T01:03:27.288Z,95.9
2019-03-30T01:04:26.659Z,95.9
2019-03-30T01:05:25.535Z,95.9
2019-03-30T01:07:23.786Z,96
2019-03-30T01:07:54.475Z,96
2019-03-30T01:08:25.158Z,96
2019-03-30T01:08:55.647Z,96
2019-03-30T01:10:20.587Z,96.1
2019-03-30T01:11:19.945Z,96.3
2019-03-30T01:12:18.903Z,96.3
2019-03-30T01:13:18.202Z,96.3
2019-03-30T01:14:16.971Z,96.2
2019-03-30T01:16:15.219Z,96.1
2019-03-30T01:17:13.901Z,96.2
2019-03-30T01:18:13.176Z,96.1
2019-03-30T01:18:43.769Z,96.1
2019-03-30T01:19:14.461Z,96.3
2019-03-30T01:19:45.113Z,96.3
2019-03-30T01:20:15.700Z,96.3
2019-03-30T01:21:10.449Z,96.2
2019-03-30T01:22:09.624Z,96.2
2019-03-30T01:23:08.494Z,96.2
2019-03-30T01:24:07.765Z,96.3
2019-03-30T01:25:06.667Z,96.5
2019-03-30T01:26:05.452Z,96.6
2019-03-30T01:27:04.820Z,96.6
2019-03-30T01:28:03.700Z,96.5
2019-03-30T01:29:02.897Z,96.6
2019-03-30T01:29:33.384Z,96.6
2019-03-30T01:30:03.986Z,96.5
2019-03-30T01:31:00.845Z,96.6
2019-03-30T01:31:59.716Z,96.5
2019-03-30T01:32:59.012Z,96.5
2019-03-30T01:33:57.899Z,96.6
2019-03-30T01:34:28.584Z,96.6
2019-03-30T01:34:59.349Z,96.6
2019-03-30T01:35:56.285Z,96.8
2019-03-30T01:36:55.058Z,96.8
2019-03-30T01:37:54.441Z,96.9
2019-03-30T01:38:53.315Z,96.9
2019-03-30T01:39:24.007Z,96.9
2019-03-30T01:39:54.201Z,96.9
2019-03-30T01:40:51.456Z,96.9
2019-03-30T01:41:50.730Z,97.1
2019-03-30T01:42:49.397Z,97.1
2019-03-30T01:43:48.774Z,97.1
2019-03-30T01:44:19.459Z,97.1
2019-03-30T01:44:50.159Z,97.1
2019-03-30T01:45:20.846Z,97.1
2019-03-30T01:45:51.537Z,97
2019-03-30T01:46:45.885Z,97
2019-03-30T01:47:44.764Z,96.9
2019-03-30T01:48:44.037Z,96.8
2019-03-30T01:49:42.904Z,96.8
2019-03-30T01:50:41.763Z,96.7
2019-03-30T01:51:41.132Z,96.7
2019-03-30T01:52:40.004Z,96.6
2019-03-30T01:53:39.191Z,96.5
2019-03-30T01:54:09.881Z,96.5
2019-03-30T01:54:40.464Z,96.5
2019-03-30T01:55:11.150Z,96.5
2019-03-30T01:56:36.196Z,96.4
2019-03-30T01:57:35.569Z,96.3
2019-03-30T01:58:34.342Z,96.2
2019-03-30T01:59:33.210Z,96.1
2019-03-30T02:00:32.496Z,96.1
2019-03-30T02:01:31.761Z,96.1
2019-03-30T02:02:30.531Z,96.1
2019-03-30T02:03:29.801Z,96.1
2019-03-30T02:04:00.388Z,96.1
2019-03-30T02:04:30.967Z,96.1
2019-03-30T02:05:01.669Z,96.1
2019-03-30T02:06:26.624Z,95.9
2019-03-30T02:07:25.896Z,95.8
2019-03-30T02:08:24.779Z,95.7
2019-03-30T02:09:23.858Z,95.7
2019-03-30T02:10:23.157Z,95.7
2019-03-30T02:11:21.930Z,95.7
2019-03-30T02:12:21.400Z,95.6
2019-03-30T02:13:20.378Z,95.6
2019-03-30T02:13:50.578Z,95.6
2019-03-30T02:14:21.263Z,95.5
2019-03-30T02:14:51.946Z,95.5
2019-03-30T02:15:22.442Z,95.4
2019-03-30T02:15:53.030Z,95.4
2019-03-30T02:17:16.462Z,95.3
2019-03-30T02:18:15.250Z,95.2
2019-03-30T02:19:14.624Z,95.2
2019-03-30T02:20:13.395Z,95.2
2019-03-30T02:21:12.764Z,94.9
2019-03-30T02:22:11.632Z,94.5
2019-03-30T02:23:10.909Z,94.5
2019-03-30T02:23:41.508Z,94.5
2019-03-30T02:24:12.120Z,94.2
2019-03-30T02:24:42.722Z,94.2
2019-03-30T02:25:13.212Z,93.9
2019-03-30T02:25:43.712Z,93.9
2019-03-30T02:26:14.390Z,93.8
2019-03-30T02:26:45.089Z,93.8
2019-03-30T02:28:07.427Z,93.4
2019-03-30T02:29:04.993Z,93.1
2019-03-30T02:30:04.364Z,92.6
2019-03-30T02:31:03.280Z,92.2
2019-03-30T02:32:02.198Z,91.8
2019-03-30T02:33:01.076Z,91.7
2019-03-30T02:33:31.683Z,91.7
2019-03-30T02:34:02.380Z,91.3
2019-03-30T02:34:32.621Z,91.3
2019-03-30T02:35:02.856Z,91
2019-03-30T02:35:33.474Z,91
2019-03-30T02:36:03.766Z,90.8
2019-03-30T02:36:33.882Z,90.8
2019-03-30T02:37:04.587Z,90.6
2019-03-30T02:37:34.790Z,90.6
2019-03-30T02:38:55.462Z,90.5
2019-03-30T02:39:54.870Z,90.5
2019-03-30T02:40:53.763Z,90.5
2019-03-30T02:41:53.046Z,90.4
2019-03-30T02:42:51.966Z,90.3
2019-03-30T02:43:22.173Z,90.3
2019-03-30T02:43:52.392Z,90.4
2019-03-30T02:44:22.614Z,90.4
2019-03-30T02:44:52.818Z,90.3
2019-03-30T02:45:23.525Z,90.3
2019-03-30T02:45:54.156Z,90
2019-03-30T02:46:24.377Z,90
2019-03-30T02:46:54.898Z,90
2019-03-30T02:47:25.626Z,90
2019-03-30T02:48:46.072Z,89.9
2019-03-30T02:49:45.359Z,89.9
2019-03-30T02:50:50.892Z,89.8
2019-03-30T02:51:43.331Z,90.1
2019-03-30T02:52:42.659Z,90
2019-03-30T02:53:41.373Z,89.9
2019-03-30T02:54:11.585Z,89.9
2019-03-30T02:54:41.706Z,89.9
2019-03-30T02:55:13.091Z,89.9
2019-03-30T02:55:42.288Z,90
2019-03-30T02:56:12.509Z,90
2019-03-30T02:56:42.713Z,89.9
2019-03-30T02:57:13.328Z,89.9
2019-03-30T02:57:43.953Z,89.9
2019-03-30T02:58:14.180Z,89.9
2019-03-30T02:59:36.127Z,90
2019-03-30T03:00:35.066Z,89.9
2019-03-30T03:01:33.951Z,89.9
2019-03-30T03:02:32.879Z,89.8
2019-03-30T03:03:32.290Z,89.8
2019-03-30T03:04:02.928Z,89.8
2019-03-30T03:04:33.157Z,89.9
2019-03-30T03:05:03.757Z,89.9
2019-03-30T03:05:34.326Z,90
2019-03-30T03:06:04.433Z,90
2019-03-30T03:06:35.187Z,90.2
2019-03-30T03:07:05.401Z,90.2
2019-03-30T03:07:35.606Z,90.4
2019-03-30T03:08:06.210Z,90.4
2019-03-30T03:09:26.772Z,90.3
2019-03-30T03:10:25.581Z,90.4
2019-03-30T03:11:24.878Z,90.2
2019-03-30T03:12:23.664Z,90.6
2019-03-30T03:13:22.566Z,90.5
2019-03-30T03:14:21.948Z,90.7
2019-03-30T03:14:52.651Z,90.7
2019-03-30T03:15:23.245Z,90.6
2019-03-30T03:15:53.769Z,90.6
2019-03-30T03:16:27.758Z,90.6
2019-03-30T03:16:55.113Z,90.6
2019-03-30T03:18:18.192Z,90.7
2019-03-30T03:19:17.132Z,90.8
2019-03-30T03:20:16.190Z,90.8
2019-03-30T03:21:15.093Z,90.9
2019-03-30T03:22:14.514Z,91
2019-03-30T03:23:13.432Z,91
2019-03-30T03:24:12.233Z,91
2019-03-30T03:25:11.664Z,91.1
2019-03-30T03:25:41.926Z,91.1
2019-03-30T03:26:12.146Z,91
2019-03-30T03:26:42.336Z,91
2019-03-30T03:27:12.682Z,91.1
2019-03-30T03:27:43.232Z,91.1
2019-03-30T03:29:07.796Z,91.2
2019-03-30T03:30:06.712Z,91.2
2019-03-30T03:31:05.842Z,91.2
2019-03-30T03:32:04.774Z,91.3
2019-03-30T03:33:03.979Z,91.4
2019-03-30T03:34:02.906Z,91.4
2019-03-30T03:35:02.032Z,91.4
2019-03-30T03:35:32.487Z,91.4
2019-03-30T03:36:02.698Z,91.4
2019-03-30T03:36:32.823Z,91.4
2019-03-30T03:37:03.560Z,91.4
2019-03-30T03:37:46.495Z,91.4
2019-03-30T03:38:58.609Z,91.6
2019-03-30T03:39:57.337Z,91.6
2019-03-30T03:40:56.562Z,91.6
2019-03-30T03:41:55.462Z,91.6
2019-03-30T03:42:54.766Z,91.6
2019-03-30T03:43:53.539Z,91.6
2019-03-30T03:44:52.854Z,91.6
2019-03-30T03:45:51.787Z,91.7
2019-03-30T03:46:22.432Z,91.7
2019-03-30T03:46:52.650Z,91.7
2019-03-30T03:47:23.264Z,91.7
2019-03-30T03:48:48.771Z,91.9
2019-03-30T03:49:48.156Z,91.9
2019-03-30T03:50:53.223Z,91.9
2019-03-30T03:51:46.072Z,92
2019-03-30T03:52:44.894Z,92
2019-03-30T03:53:44.301Z,91.8
2019-03-30T03:54:43.178Z,91.8
2019-03-30T03:55:42.481Z,91.8
2019-03-30T03:56:41.279Z,91.8
2019-03-30T03:57:11.379Z,91.8
2019-03-30T03:57:42.095Z,91.8
2019-03-30T03:58:39.499Z,91.8
2019-03-30T03:59:38.298Z,91.8
2019-03-30T04:00:37.722Z,91.7
2019-03-30T04:01:36.585Z,91.7
2019-03-30T04:02:35.539Z,91.7
2019-03-30T04:03:34.908Z,91.7
2019-03-30T04:04:33.703Z,91.8
2019-03-30T04:05:33.086Z,91.7
2019-03-30T04:06:31.957Z,91.7
2019-03-30T04:07:30.748Z,91.7
2019-03-30T04:08:30.053Z,91.7
2019-03-30T04:09:28.936Z,91.7
2019-03-30T04:10:28.323Z,91.8
2019-03-30T04:11:27.230Z,91.9
2019-03-30T04:12:26.508Z,91.8
2019-03-30T04:12:57.208Z,91.8
2019-03-30T04:13:27.820Z,91.7
2019-03-30T04:14:24.191Z,91.7
2019-03-30T04:15:23.491Z,91.7
2019-03-30T04:16:22.396Z,91.7
2019-03-30T04:17:21.813Z,91.7
2019-03-30T04:18:20.693Z,91.8
2019-03-30T04:19:19.572Z,91.8
2019-03-30T04:21:17.855Z,91.9
2019-03-30T04:22:16.778Z,92
2019-03-30T04:22:47.374Z,92
2019-03-30T04:24:14.825Z,92
2019-03-30T04:25:14.244Z,92
2019-03-30T04:26:13.116Z,92
2019-03-30T04:27:11.926Z,92.1
2019-03-30T04:28:11.308Z,92.1
2019-03-30T04:29:10.171Z,92.1
2019-03-30T04:30:09.465Z,92.1
2019-03-30T04:31:08.366Z,92.1
2019-03-30T04:32:07.260Z,92.2
2019-03-30T04:32:37.363Z,92.2
2019-03-30T04:33:07.945Z,92.1
2019-03-30T04:33:38.635Z,92.1
2019-03-30T04:35:04.636Z,92.3
2019-03-30T04:36:03.431Z,92.4
2019-03-30T04:37:02.853Z,92.4
2019-03-30T04:38:01.649Z,92.4
2019-03-30T04:39:00.962Z,92.4
2019-03-30T04:39:59.843Z,92.4
2019-03-30T04:40:58.998Z,92.3
2019-03-30T04:41:57.669Z,92.3
2019-03-30T04:42:28.366Z,92.3
2019-03-30T04:42:58.968Z,92.4
2019-03-30T04:43:29.162Z,92.4
2019-03-30T04:43:59.370Z,92.4
2019-03-30T04:44:29.950Z,92.4
2019-03-30T04:45:53.990Z,92.5
2019-03-30T04:46:53.359Z,92.5
2019-03-30T04:47:52.231Z,92.5
2019-03-30T04:48:51.506Z,92.5
2019-03-30T04:49:50.413Z,92.5
2019-03-30T04:50:49.275Z,92.4
2019-03-30T04:51:58.218Z,92.4
2019-03-30T04:52:18.888Z,92.4
2019-03-30T04:52:49.475Z,92.4
2019-03-30T04:53:20.164Z,92.4
2019-03-30T04:53:50.770Z,92.4
2019-03-30T04:54:21.453Z,92.4
2019-03-30T04:55:44.472Z,92.4
2019-03-30T04:56:43.746Z,92.5
2019-03-30T04:57:42.627Z,92.4
2019-03-30T04:58:41.994Z,92.4
2019-03-30T04:59:40.756Z,92.6
2019-03-30T05:00:40.034Z,92.6
2019-03-30T05:01:38.911Z,92.6
2019-03-30T05:02:09.107Z,92.6
2019-03-30T05:02:39.373Z,92.5
2019-03-30T05:03:09.953Z,92.5
2019-03-30T05:03:40.640Z,92.5
2019-03-30T05:04:11.326Z,92.5
2019-03-30T05:04:41.907Z,92.4
2019-03-30T05:05:12.483Z,92.4
2019-03-30T05:06:34.000Z,92.5
2019-03-30T05:07:33.408Z,92.4
2019-03-30T05:08:32.171Z,92.5
2019-03-30T05:09:31.351Z,92.5
2019-03-30T05:10:30.213Z,92.6
2019-03-30T05:11:29.583Z,92.6
2019-03-30T05:12:00.267Z,92.6
2019-03-30T05:12:30.961Z,92.6
2019-03-30T05:13:01.660Z,92.6
2019-03-30T05:13:32.243Z,92.5
2019-03-30T05:14:02.923Z,92.5
2019-03-30T05:14:33.507Z,92.5
2019-03-30T05:15:04.223Z,92.5
2019-03-30T05:15:34.417Z,92.6
2019-03-30T05:16:05.035Z,92.6
2019-03-30T05:17:23.843Z,92.7
2019-03-30T05:18:22.710Z,92.6
2019-03-30T05:19:21.576Z,92.5
2019-03-30T05:20:20.870Z,92.5
2019-03-30T05:21:20.033Z,92.5
2019-03-30T05:21:50.718Z,92.5
2019-03-30T05:22:21.308Z,92.5
2019-03-30T05:22:52.001Z,92.5
2019-03-30T05:23:22.683Z,92.5
2019-03-30T05:23:53.264Z,92.5
2019-03-30T05:24:23.944Z,92.5
2019-03-30T05:24:54.634Z,92.5
2019-03-30T05:25:25.224Z,92.5
2019-03-30T05:25:55.908Z,92.5
2019-03-30T05:27:14.299Z,92.2
2019-03-30T05:28:13.085Z,92.1
2019-03-30T05:29:12.351Z,92
2019-03-30T05:30:11.216Z,91.9
2019-03-30T05:31:10.095Z,91.5
2019-03-30T05:32:09.479Z,91.3
2019-03-30T05:32:42.188Z,91.3
2019-03-30T05:33:10.795Z,91.1
2019-03-30T05:33:41.479Z,91.1
2019-03-30T05:34:12.157Z,90.9
2019-03-30T05:34:42.746Z,90.9
2019-03-30T05:35:13.227Z,90.8
2019-03-30T05:35:43.887Z,90.8
2019-03-30T05:37:04.408Z,90.6
2019-03-30T05:38:03.779Z,90.5
2019-03-30T05:39:02.562Z,90.4
2019-03-30T05:40:01.871Z,90.3
2019-03-30T05:41:00.832Z,90.3
2019-03-30T05:41:59.718Z,90.2
2019-03-30T05:42:30.388Z,90.2
2019-03-30T05:43:01.064Z,90.1
2019-03-30T05:43:31.560Z,90.1
2019-03-30T05:44:02.152Z,90.1
2019-03-30T05:44:32.758Z,90.1
2019-03-30T05:45:03.346Z,90
2019-03-30T05:45:33.606Z,90
2019-03-30T05:46:55.044Z,90
2019-03-30T05:47:53.954Z,89.9
2019-03-30T05:48:53.316Z,89.9
2019-03-30T05:49:52.080Z,89.9
2019-03-30T05:50:51.450Z,89.7
2019-03-30T05:51:50.314Z,89.7
2019-03-30T05:52:49.081Z,89.8
2019-03-30T05:53:19.762Z,89.8
2019-03-30T05:53:50.452Z,89.8
2019-03-30T05:54:21.129Z,89.8
2019-03-30T05:54:51.805Z,89.8
2019-03-30T05:55:22.495Z,89.8
2019-03-30T05:56:45.508Z,89.7
2019-03-30T05:57:44.790Z,89.6
2019-03-30T05:58:43.561Z,89.6
2019-03-30T05:59:42.921Z,89.7
2019-03-30T06:00:41.611Z,89.7
2019-03-30T06:01:40.986Z,89.6
2019-03-30T06:02:39.746Z,89.8
2019-03-30T06:03:39.111Z,89.8
2019-03-30T06:04:09.693Z,89.8
2019-03-30T06:04:40.199Z,89.7
2019-03-30T06:05:10.779Z,89.7
2019-03-30T06:06:35.805Z,89.6
2019-03-30T06:07:35.070Z,89.6
2019-03-30T06:08:33.946Z,89.6
2019-03-30T06:09:33.323Z,89.6
2019-03-30T06:10:32.200Z,89.6
2019-03-30T06:11:31.123Z,89.4
2019-03-30T06:12:30.390Z,89.1
2019-03-30T06:13:29.164Z,89
2019-03-30T06:14:28.527Z,88.8
2019-03-30T06:14:59.106Z,88.8
2019-03-30T06:16:26.573Z,88.7
2019-03-30T06:17:25.529Z,88.7
2019-03-30T06:18:24.813Z,88.8
2019-03-30T06:19:23.530Z,88.7
2019-03-30T06:20:22.801Z,88.8
2019-03-30T06:21:21.872Z,88.8
2019-03-30T06:22:20.734Z,88.8
2019-03-30T06:23:20.122Z,88.8
2019-03-30T06:24:18.981Z,88.8
2019-03-30T06:24:49.552Z,88.8
2019-03-30T06:25:19.736Z,88.7
2019-03-30T06:25:49.960Z,88.7
2019-03-30T06:26:20.642Z,88.6
2019-03-30T06:27:15.989Z,88.4
2019-03-30T06:28:15.380Z,88.3
2019-03-30T06:29:14.167Z,88.1
2019-03-30T06:30:13.432Z,88.1
2019-03-30T06:31:12.328Z,88
2019-03-30T06:32:11.604Z,87.9
2019-03-30T06:33:10.461Z,87.6
2019-03-30T06:34:09.335Z,87.3
2019-03-30T06:35:08.707Z,87.3
2019-03-30T06:36:07.526Z,87.1
2019-03-30T06:37:06.407Z,87.2
2019-03-30T06:38:05.787Z,87.2
2019-03-30T06:39:04.555Z,87
2019-03-30T06:40:03.939Z,87.1
2019-03-30T06:40:34.346Z,87.1
2019-03-30T06:41:05.037Z,86.8
2019-03-30T06:41:35.531Z,86.8
2019-03-30T06:42:06.221Z,86.8
2019-03-30T06:43:01.080Z,86.8
2019-03-30T06:43:59.750Z,86.8
2019-03-30T06:44:59.111Z,86.8
2019-03-30T06:45:58.180Z,86.8
2019-03-30T06:46:56.967Z,86.8
2019-03-30T06:47:56.239Z,86.6
2019-03-30T06:48:55.114Z,86.4
2019-03-30T06:49:54.383Z,86.6
2019-03-30T06:50:24.965Z,86.6
2019-03-30T06:50:55.601Z,86.6
2019-03-30T06:51:25.836Z,86.6
2019-03-30T06:51:56.425Z,86
2019-03-30T06:52:26.691Z,86
2019-03-30T06:52:59.128Z,85.9
2019-03-30T06:53:50.471Z,85.8
2019-03-30T06:54:49.420Z,86.3
2019-03-30T06:55:48.790Z,86.1
2019-03-30T06:56:47.662Z,86.1
2019-03-30T06:57:47.034Z,85.7
2019-03-30T06:59:45.181Z,85.5
2019-03-30T07:00:15.935Z,85.5
2019-03-30T07:00:46.125Z,85.2
2019-03-30T07:01:16.614Z,85.2
2019-03-30T07:02:42.156Z,85.2
2019-03-30T07:03:41.427Z,85.1
2019-03-30T07:05:39.483Z,84.3
2019-03-30T07:06:38.355Z,84.2
2019-03-30T07:07:37.225Z,84.3
2019-03-30T07:08:36.450Z,84.2
2019-03-30T07:09:35.715Z,84
2019-03-30T07:10:06.395Z,84
2019-03-30T07:10:38.783Z,83.8
2019-03-30T07:11:21.536Z,83.8
2019-03-30T07:11:37.716Z,83.8
2019-03-30T07:12:08.401Z,83.8
2019-03-30T07:13:31.921Z,83.9
2019-03-30T07:14:30.790Z,83.5
2019-03-30T07:15:29.967Z,83.5
2019-03-30T07:16:29.286Z,83.5
2019-03-30T07:17:28.361Z,83.1
2019-03-30T07:18:27.133Z,83.3
2019-03-30T07:19:26.502Z,83.2
2019-03-30T07:19:56.705Z,83.2
2019-03-30T07:20:27.392Z,83
2019-03-30T07:20:58.086Z,83
2019-03-30T07:22:23.422Z,82.9
2019-03-30T07:22:54.097Z,82.9
2019-03-30T07:23:24.322Z,82.9
2019-03-30T07:23:54.903Z,82.9
2019-03-30T07:25:20.950Z,82.7
2019-03-30T07:27:18.726Z,82.2
2019-03-30T07:28:18.137Z,82.1
2019-03-30T07:29:17.036Z,81.2
2019-03-30T07:29:47.726Z,81.2
2019-03-30T07:31:15.189Z,81.2
2019-03-30T07:31:45.873Z,81.2
2019-03-30T07:32:16.561Z,81
2019-03-30T07:32:47.251Z,81
2019-03-30T07:33:17.923Z,81
2019-03-30T07:33:48.611Z,81
2019-03-30T07:35:11.636Z,81
2019-03-30T07:36:10.407Z,80.9
2019-03-30T07:37:09.771Z,81.1
2019-03-30T07:38:08.645Z,81.1
2019-03-30T07:39:08.009Z,81.1
2019-03-30T07:39:38.690Z,81.1
2019-03-30T07:40:09.278Z,81.1
2019-03-30T07:40:39.952Z,81.1
2019-03-30T07:41:10.660Z,80.8
2019-03-30T07:41:41.241Z,80.8
2019-03-30T07:42:11.931Z,80.6
2019-03-30T07:42:42.608Z,80.6
2019-03-30T07:43:13.300Z,80.3
2019-03-30T07:43:43.526Z,80.3
2019-03-30T07:45:02.372Z,79.7
2019-03-30T07:46:01.247Z,79.6
2019-03-30T07:47:00.429Z,79.6
2019-03-30T07:47:59.706Z,79.8
2019-03-30T07:48:58.574Z,80
2019-03-30T07:49:57.440Z,79.9
2019-03-30T07:50:28.044Z,79.9
2019-03-30T07:50:58.729Z,79.7
2019-03-30T07:51:29.420Z,79.7
2019-03-30T07:51:59.956Z,79.7
2019-03-30T07:52:30.279Z,79.7
2019-03-30T07:53:00.450Z,79.7
2019-03-30T07:53:45.137Z,79.7
2019-03-30T07:54:53.097Z,79.8
2019-03-30T07:55:52.264Z,79.5
2019-03-30T07:56:22.751Z,79.5
2019-03-30T07:57:14.938Z,79.3
2019-03-30T07:57:23.700Z,79.3
2019-03-30T07:57:54.339Z,79.1
2019-03-30T07:58:49.385Z,79.1
2019-03-30T07:59:48.697Z,78.9
2019-03-30T08:00:47.698Z,79
2019-03-30T08:01:17.700Z,79
2019-03-30T08:01:48.462Z,79.2
2019-03-30T08:02:19.068Z,79.2
2019-03-30T08:02:49.560Z,79.1
2019-03-30T08:03:20.156Z,79.1
2019-03-30T08:03:50.850Z,79.1
2019-03-30T08:04:21.434Z,79.1
2019-03-30T08:05:42.846Z,79.1
2019-03-30T08:06:42.132Z,79.4
2019-03-30T08:07:41.441Z,79.3
2019-03-30T08:08:40.310Z,78.8
2019-03-30T08:09:39.685Z,78.2
2019-03-30T08:10:38.776Z,77.8
2019-03-30T08:11:09.357Z,77.8
2019-03-30T08:11:39.936Z,77.7
2019-03-30T08:12:10.615Z,77.7
2019-03-30T08:12:41.305Z,77.7
2019-03-30T08:13:11.792Z,77.7
2019-03-30T08:13:42.481Z,77.9
2019-03-30T08:14:13.058Z,77.9
2019-03-30T08:15:33.788Z,77.3
2019-03-30T08:16:33.060Z,77.2
2019-03-30T08:17:32.232Z,77
2019-03-30T08:18:31.511Z,76.9
2019-03-30T08:19:30.281Z,76.6
2019-03-30T08:20:29.664Z,76.4
2019-03-30T08:21:28.538Z,76.4
2019-03-30T08:21:59.220Z,76.4
2019-03-30T08:22:29.797Z,76.3
2019-03-30T08:23:00.393Z,76.3
2019-03-30T08:23:40.949Z,76.4
2019-03-30T08:24:01.622Z,76.4
2019-03-30T08:25:25.147Z,76.7
2019-03-30T08:26:24.313Z,76.6
2019-03-30T08:27:23.075Z,76.5
2019-03-30T08:28:22.352Z,76
2019-03-30T08:29:21.213Z,75.8
2019-03-30T08:30:20.579Z,75.9
2019-03-30T08:31:19.438Z,76
2019-03-30T08:32:18.798Z,76.3
2019-03-30T08:32:49.280Z,76.3
2019-03-30T08:33:19.774Z,75.9
2019-03-30T08:33:50.256Z,75.9
2019-03-30T08:34:20.846Z,76.3
2019-03-30T08:34:51.525Z,76.3
2019-03-30T08:35:22.113Z,76.1
2019-03-30T08:36:14.927Z,75.7
2019-03-30T08:37:14.301Z,75.4
2019-03-30T08:38:13.581Z,75.1
2019-03-30T08:39:12.532Z,74.9
2019-03-30T08:40:11.453Z,75.5
2019-03-30T08:41:10.851Z,75.3
2019-03-30T08:42:09.721Z,75.1
2019-03-30T08:43:09.081Z,74.1
2019-03-30T08:43:39.756Z,74.1
2019-03-30T08:44:10.347Z,74.1
2019-03-30T08:46:06.081Z,73.5
2019-03-30T08:47:05.257Z,73.2
2019-03-30T08:48:04.624Z,73.3
2019-03-30T08:49:03.427Z,73.3
2019-03-30T08:50:02.805Z,73.3
2019-03-30T08:51:01.567Z,73.2
2019-03-30T08:52:00.934Z,73.5
2019-03-30T08:52:59.847Z,73.7
2019-03-30T08:53:59.116Z,73.8
2019-03-30T08:54:58.509Z,73.5
2019-03-30T08:55:57.371Z,73.5
2019-03-30T08:56:56.738Z,73.5
2019-03-30T08:57:55.511Z,73.3
2019-03-30T08:59:53.679Z,73.3
2019-03-30T09:00:52.954Z,72.8
2019-03-30T09:01:52.222Z,72
2019-03-30T09:02:50.984Z,72.3
2019-03-30T09:03:50.249Z,72.2
2019-03-30T09:04:49.625Z,72.4
2019-03-30T09:05:48.515Z,72.4
2019-03-30T09:06:47.699Z,72.5
2019-03-30T09:07:47.075Z,72.6
2019-03-30T09:08:45.740Z,72.5
2019-03-30T09:09:16.444Z,72.5
2019-03-30T09:10:44.498Z,72
2019-03-30T09:11:44.101Z,72.2
2019-03-30T09:12:42.472Z,72
2019-03-30T09:13:41.850Z,71.6
2019-03-30T09:14:40.719Z,71.4
2019-03-30T09:15:39.913Z,71.4
2019-03-30T09:16:39.402Z,71.6
2019-03-30T09:17:38.069Z,71.6
2019-03-30T09:18:37.334Z,71.4
2019-03-30T09:19:07.821Z,71.4
2019-03-30T09:19:38.412Z,70.8
2019-03-30T09:20:09.107Z,70.8
2019-03-30T09:21:34.647Z,69.3
2019-03-30T09:22:33.926Z,68.3
2019-03-30T09:23:33.194Z,68.2
2019-03-30T09:24:31.961Z,69.2
2019-03-30T09:25:31.244Z,69
2019-03-30T09:26:30.515Z,68.9
2019-03-30T09:28:28.726Z,69.4
2019-03-30T09:28:59.310Z,69.4
2019-03-30T09:29:30.000Z,69.3
2019-03-30T09:30:00.678Z,69.3
2019-03-30T09:30:31.266Z,67.9
2019-03-30T09:31:01.946Z,67.9
2019-03-30T09:32:25.481Z,68.2
2019-03-30T09:33:24.652Z,68.3
2019-03-30T09:34:23.423Z,68.3
2019-03-30T09:35:22.811Z,68.4
2019-03-30T09:38:20.017Z,67.3
2019-03-30T09:38:50.516Z,67.3
2019-03-30T09:39:21.205Z,67.8
2019-03-30T09:39:51.898Z,67.8
2019-03-30T09:40:22.377Z,67.2
2019-03-30T09:40:52.967Z,67.2
2019-03-30T09:41:23.642Z,67.3
2019-03-30T09:41:54.318Z,67.3
2019-03-30T09:44:15.119Z,68
2019-03-30T09:45:13.989Z,68.1
2019-03-30T09:46:13.261Z,68.1
2019-03-30T09:47:12.551Z,67.8
2019-03-30T09:48:11.919Z,68
2019-03-30T09:48:42.509Z,68
2019-03-30T09:49:13.202Z,67.8
2019-03-30T09:49:43.885Z,67.8
2019-03-30T09:50:14.570Z,67.7
2019-03-30T09:50:45.184Z,67.7
2019-03-30T09:51:15.757Z,67.1
2019-03-30T09:51:46.437Z,67.1
2019-03-30T09:52:16.927Z,67.1
2019-03-30T09:52:47.615Z,67.1
2019-03-30T09:54:06.614Z,65.5
2019-03-30T09:55:05.885Z,63.7
2019-03-30T09:56:05.169Z,63.5
2019-03-30T09:57:04.030Z,63.4
2019-03-30T09:59:02.264Z,62.4
2019-03-30T09:59:32.945Z,62.4
2019-03-30T10:00:03.630Z,62.1
2019-03-30T10:00:34.232Z,62.1
2019-03-30T10:01:59.771Z,62.2
2019-03-30T10:02:30.251Z,62.2
2019-03-30T10:03:00.927Z,62.5
2019-03-30T10:03:31.124Z,62.5
2019-03-30T10:04:57.166Z,62.1
2019-03-30T10:05:56.341Z,61.6
2019-03-30T10:06:55.707Z,61.1
2019-03-30T10:07:55.002Z,61.1
2019-03-30T10:08:53.859Z,61
2019-03-30T10:09:24.436Z,61
2019-03-30T10:09:54.931Z,60.2
2019-03-30T10:10:25.510Z,60.2
2019-03-30T10:10:55.786Z,60.8
2019-03-30T10:11:26.382Z,60.8
2019-03-30T10:12:50.930Z,59.9
2019-03-30T10:13:21.627Z,59.9
2019-03-30T10:13:51.797Z,60.4
2019-03-30T10:14:49.064Z,60.6
2019-03-30T10:15:48.438Z,60.3
2019-03-30T10:16:49.084Z,60.3
2019-03-30T10:17:46.450Z,59.4
2019-03-30T10:18:45.792Z,56.3
2019-03-30T10:20:03.921Z,55.9
2019-03-30T10:20:15.765Z,55.9
2019-03-30T10:20:46.449Z,54.4
2019-03-30T10:21:17.123Z,54.4
2019-03-30T10:21:47.718Z,54.2
2019-03-30T10:22:18.305Z,54.2
2019-03-30T10:22:48.793Z,55.4
2019-03-30T10:23:19.467Z,55.4
2019-03-30T10:25:39.856Z,51.4
2019-03-30T10:26:39.216Z,51.4
2019-03-30T10:27:38.584Z,52.1
2019-03-30T10:28:37.747Z,51.8
2019-03-30T10:29:36.921Z,52.1
2019-03-30T10:30:35.795Z,50.9
2019-03-30T10:31:06.483Z,50.9
2019-03-30T10:31:37.251Z,51.9
2019-03-30T10:32:07.838Z,51.9
2019-03-30T10:32:38.518Z,50.8
2019-03-30T10:33:09.194Z,50.8
2019-03-30T10:34:32.623Z,48.9
2019-03-30T10:35:31.804Z,49.2
2019-03-30T10:36:31.190Z,49.5
2019-03-30T10:37:30.064Z,49.5
2019-03-30T10:39:28.715Z,47.8
2019-03-30T10:40:28.087Z,49.4
2019-03-30T10:41:26.953Z,50.2
2019-03-30T10:41:57.644Z,50.2
2019-03-30T10:44:24.586Z,49.8
2019-03-30T10:45:23.989Z,50.5
2019-03-30T10:46:23.254Z,50.2
2019-03-30T10:47:22.014Z,49.7
2019-03-30T10:48:21.188Z,49.6
2019-03-30T10:49:20.564Z,49.7
2019-03-30T10:50:19.841Z,49.6
2019-03-30T10:51:19.291Z,50.2
2019-03-30T10:52:18.173Z,51.8
2019-03-30T10:52:48.768Z,51.8
2019-03-30T10:53:19.268Z,51.1
2019-03-30T10:53:49.947Z,51.1
2019-03-30T10:54:20.532Z,51.3
2019-03-30T10:54:53.430Z,51.3
2019-03-30T10:55:21.620Z,51.8
2019-03-30T10:56:14.966Z,49.9
2019-03-30T10:57:14.234Z,50.4
2019-03-30T10:58:13.603Z,51.8
2019-03-30T10:59:12.491Z,53.3
2019-03-30T11:00:11.862Z,51.8
2019-03-30T11:01:11.226Z,53.3
2019-03-30T11:02:10.100Z,52.6
2019-03-30T11:03:09.368Z,54.2
2019-03-30T11:03:39.958Z,54.2
2019-03-30T11:04:10.635Z,54.5
2019-03-30T11:05:07.980Z,54
2019-03-30T11:06:07.371Z,53.7
2019-03-30T11:07:06.139Z,54.9
2019-03-30T11:08:05.585Z,54.5
2019-03-30T11:09:04.975Z,54